sensor_id;sensor_type;location;lat;lon;timestamp;temperature;humidity
16408;DHT22;8313;49.894;8.084;2022-09-03T00:01:51;19.20;56.40
16408;DHT22;8313;49.894;8.084;2022-09-03T00:04:38;19.10;56.50
16408;DHT22;8313;49.894;8.084;2022-09-03T00:07:16;19.00;56.60
16408;DHT22;8313;49.894;8.084;2022-09-03T00:09:47;19.00;56.60
16408;DHT22;8313;49.894;8.084;2022-09-03T00:12:27;19.00;56.70
16408;DHT22;8313;49.894;8.084;2022-09-03T00:15:01;19.00;56.60
16408;DHT22;8313;49.894;8.084;2022-09-03T00:17:33;18.90;56.60
16408;DHT22;8313;49.894;8.084;2022-09-03T00:20:05;18.90;56.70
16408;DHT22;8313;49.894;8.084;2022-09-03T00:23:11;18.90;56.70
16408;DHT22;8313;49.894;8.084;2022-09-03T00:25:39;18.90;56.80
16408;DHT22;8313;49.894;8.084;2022-09-03T00:28:15;18.90;56.80
16408;DHT22;8313;49.894;8.084;2022-09-03T00:30:45;18.80;56.70
16408;DHT22;8313;49.894;8.084;2022-09-03T00:33:21;18.80;56.70
16408;DHT22;8313;49.894;8.084;2022-09-03T00:36:14;18.70;56.80
16408;DHT22;8313;49.894;8.084;2022-09-03T00:38:41;18.70;56.80
16408;DHT22;8313;49.894;8.084;2022-09-03T00:41:18;18.70;56.80
16408;DHT22;8313;49.894;8.084;2022-09-03T00:51:54;18.60;56.90
16408;DHT22;8313;49.894;8.084;2022-09-03T01:00:11;18.60;56.90
16408;DHT22;8313;49.894;8.084;2022-09-03T01:11:29;18.40;57.10
16408;DHT22;8313;49.894;8.084;2022-09-03T01:20:02;18.30;57.20
16408;DHT22;8313;49.894;8.084;2022-09-03T01:38:39;18.20;57.40
16408;DHT22;8313;49.894;8.084;2022-09-03T01:47:03;18.20;57.60
16408;DHT22;8313;49.894;8.084;2022-09-03T01:50:00;18.20;58.00
16408;DHT22;8313;49.894;8.084;2022-09-03T01:56:10;18.20;57.80
16408;DHT22;8313;49.894;8.084;2022-09-03T01:58:48;18.10;57.70
16408;DHT22;8313;49.894;8.084;2022-09-03T02:01:41;18.10;57.70
16408;DHT22;8313;49.894;8.084;2022-09-03T02:04:23;18.10;57.80
16408;DHT22;8313;49.894;8.084;2022-09-03T02:06:53;18.10;57.80
16408;DHT22;8313;49.894;8.084;2022-09-03T02:09:22;18.10;57.90
16408;DHT22;8313;49.894;8.084;2022-09-03T02:11:57;18.10;57.90
16408;DHT22;8313;49.894;8.084;2022-09-03T02:14:26;18.10;57.90
16408;DHT22;8313;49.894;8.084;2022-09-03T02:16:53;18.10;57.90
16408;DHT22;8313;49.894;8.084;2022-09-03T02:19:20;18.10;58.00
16408;DHT22;8313;49.894;8.084;2022-09-03T02:21:54;18.10;58.10
16408;DHT22;8313;49.894;8.084;2022-09-03T02:24:20;18.10;57.90
16408;DHT22;8313;49.894;8.084;2022-09-03T02:26:46;18.10;58.00
16408;DHT22;8313;49.894;8.084;2022-09-03T02:29:13;18.10;58.00
16408;DHT22;8313;49.894;8.084;2022-09-03T02:31:40;18.10;58.00
16408;DHT22;8313;49.894;8.084;2022-09-03T02:34:05;18.10;58.20
16408;DHT22;8313;49.894;8.084;2022-09-03T02:36:34;18.10;58.30
16408;DHT22;8313;49.894;8.084;2022-09-03T02:39:00;18.10;58.40
16408;DHT22;8313;49.894;8.084;2022-09-03T02:41:26;18.10;58.40
16408;DHT22;8313;49.894;8.084;2022-09-03T02:46:58;18.10;58.20
16408;DHT22;8313;49.894;8.084;2022-09-03T02:49:24;18.10;58.30
16408;DHT22;8313;49.894;8.084;2022-09-03T02:51:49;18.10;58.30
16408;DHT22;8313;49.894;8.084;2022-09-03T02:54:15;18.00;58.10
16408;DHT22;8313;49.894;8.084;2022-09-03T02:56:41;18.00;58.30
16408;DHT22;8313;49.894;8.084;2022-09-03T02:59:08;18.00;58.40
16408;DHT22;8313;49.894;8.084;2022-09-03T03:01:35;18.00;58.70
16408;DHT22;8313;49.894;8.084;2022-09-03T03:04:02;18.00;58.30
16408;DHT22;8313;49.894;8.084;2022-09-03T03:06:27;18.00;58.30
16408;DHT22;8313;49.894;8.084;2022-09-03T03:08:53;18.00;58.30
16408;DHT22;8313;49.894;8.084;2022-09-03T03:11:20;18.00;58.30
16408;DHT22;8313;49.894;8.084;2022-09-03T03:13:47;18.00;58.20
16408;DHT22;8313;49.894;8.084;2022-09-03T03:16:14;18.00;58.30
16408;DHT22;8313;49.894;8.084;2022-09-03T03:18:41;18.00;58.30
16408;DHT22;8313;49.894;8.084;2022-09-03T03:21:12;18.00;58.30
16408;DHT22;8313;49.894;8.084;2022-09-03T03:23:38;18.00;58.30
16408;DHT22;8313;49.894;8.084;2022-09-03T03:26:07;18.00;58.30
16408;DHT22;8313;49.894;8.084;2022-09-03T03:28:34;18.00;58.20
16408;DHT22;8313;49.894;8.084;2022-09-03T03:31:10;18.00;58.30
16408;DHT22;8313;49.894;8.084;2022-09-03T03:33:38;18.00;58.40
16408;DHT22;8313;49.894;8.084;2022-09-03T03:36:05;18.00;58.30
16408;DHT22;8313;49.894;8.084;2022-09-03T03:38:32;18.00;58.30
16408;DHT22;8313;49.894;8.084;2022-09-03T03:40:58;18.00;58.30
16408;DHT22;8313;49.894;8.084;2022-09-03T03:43:24;18.00;58.30
16408;DHT22;8313;49.894;8.084;2022-09-03T03:45:59;17.90;58.40
16408;DHT22;8313;49.894;8.084;2022-09-03T03:48:25;17.90;58.50
16408;DHT22;8313;49.894;8.084;2022-09-03T03:50:51;18.00;58.50
16408;DHT22;8313;49.894;8.084;2022-09-03T03:53:17;17.90;58.60
16408;DHT22;8313;49.894;8.084;2022-09-03T03:55:42;17.90;58.60
16408;DHT22;8313;49.894;8.084;2022-09-03T03:58:08;17.90;58.60
16408;DHT22;8313;49.894;8.084;2022-09-03T04:00:34;17.90;58.60
16408;DHT22;8313;49.894;8.084;2022-09-03T04:03:02;17.90;58.60
16408;DHT22;8313;49.894;8.084;2022-09-03T04:05:28;17.90;58.60
16408;DHT22;8313;49.894;8.084;2022-09-03T04:07:53;17.90;58.80
16408;DHT22;8313;49.894;8.084;2022-09-03T04:10:19;17.90;58.90
16408;DHT22;8313;49.894;8.084;2022-09-03T04:12:44;17.90;58.80
16408;DHT22;8313;49.894;8.084;2022-09-03T04:15:10;17.90;59.00
16408;DHT22;8313;49.894;8.084;2022-09-03T04:17:36;17.90;59.20
16408;DHT22;8313;49.894;8.084;2022-09-03T04:20:02;17.80;59.00
16408;DHT22;8313;49.894;8.084;2022-09-03T04:22:28;17.80;58.90
16408;DHT22;8313;49.894;8.084;2022-09-03T04:24:54;17.80;59.40
16408;DHT22;8313;49.894;8.084;2022-09-03T04:27:20;17.80;59.40
16408;DHT22;8313;49.894;8.084;2022-09-03T04:29:45;17.80;59.20
16408;DHT22;8313;49.894;8.084;2022-09-03T04:32:11;17.80;59.30
16408;DHT22;8313;49.894;8.084;2022-09-03T04:34:55;17.80;59.20
16408;DHT22;8313;49.894;8.084;2022-09-03T04:37:21;17.80;59.20
16408;DHT22;8313;49.894;8.084;2022-09-03T04:39:47;17.80;59.20
16408;DHT22;8313;49.894;8.084;2022-09-03T04:42:13;17.80;59.20
16408;DHT22;8313;49.894;8.084;2022-09-03T04:44:38;17.80;59.30
16408;DHT22;8313;49.894;8.084;2022-09-03T04:47:05;17.70;59.30
16408;DHT22;8313;49.894;8.084;2022-09-03T04:49:31;17.70;59.60
16408;DHT22;8313;49.894;8.084;2022-09-03T04:51:56;17.70;59.50
16408;DHT22;8313;49.894;8.084;2022-09-03T04:54:22;17.70;59.60
16408;DHT22;8313;49.894;8.084;2022-09-03T04:56:48;17.70;61.30
16408;DHT22;8313;49.894;8.084;2022-09-03T04:59:14;17.70;59.90
16408;DHT22;8313;49.894;8.084;2022-09-03T05:01:40;17.70;59.80
16408;DHT22;8313;49.894;8.084;2022-09-03T05:04:07;17.70;59.90
16408;DHT22;8313;49.894;8.084;2022-09-03T05:06:34;17.70;60.10
16408;DHT22;8313;49.894;8.084;2022-09-03T05:09:01;17.70;60.00
16408;DHT22;8313;49.894;8.084;2022-09-03T05:11:28;17.70;59.90
16408;DHT22;8313;49.894;8.084;2022-09-03T05:13:57;17.70;60.00
16408;DHT22;8313;49.894;8.084;2022-09-03T05:16:24;17.70;59.90
16408;DHT22;8313;49.894;8.084;2022-09-03T05:18:54;17.70;60.60
16408;DHT22;8313;49.894;8.084;2022-09-03T05:21:21;17.70;61.00
16408;DHT22;8313;49.894;8.084;2022-09-03T05:23:49;17.70;61.00
16408;DHT22;8313;49.894;8.084;2022-09-03T05:26:17;17.70;61.20
16408;DHT22;8313;49.894;8.084;2022-09-03T05:28:44;17.70;61.60
16408;DHT22;8313;49.894;8.084;2022-09-03T05:31:12;17.70;62.40
16408;DHT22;8313;49.894;8.084;2022-09-03T05:33:46;17.70;61.80
16408;DHT22;8313;49.894;8.084;2022-09-03T05:36:18;17.70;63.00
16408;DHT22;8313;49.894;8.084;2022-09-03T05:38:45;17.70;63.30
16408;DHT22;8313;49.894;8.084;2022-09-03T05:41:13;17.70;64.50
16408;DHT22;8313;49.894;8.084;2022-09-03T05:43:39;17.70;64.60
16408;DHT22;8313;49.894;8.084;2022-09-03T05:46:13;17.70;65.70
16408;DHT22;8313;49.894;8.084;2022-09-03T05:48:41;17.70;65.60
16408;DHT22;8313;49.894;8.084;2022-09-03T05:51:08;17.70;65.40
16408;DHT22;8313;49.894;8.084;2022-09-03T05:53:36;17.70;65.50
16408;DHT22;8313;49.894;8.084;2022-09-03T05:56:04;17.70;67.30
16408;DHT22;8313;49.894;8.084;2022-09-03T05:58:35;17.70;68.80
16408;DHT22;8313;49.894;8.084;2022-09-03T06:01:30;17.70;67.90
16408;DHT22;8313;49.894;8.084;2022-09-03T06:03:57;17.70;70.90
16408;DHT22;8313;49.894;8.084;2022-09-03T06:06:24;17.70;72.40
16408;DHT22;8313;49.894;8.084;2022-09-03T06:08:56;17.70;70.10
16408;DHT22;8313;49.894;8.084;2022-09-03T06:11:24;17.70;70.00
16408;DHT22;8313;49.894;8.084;2022-09-03T06:13:53;17.70;69.60
16408;DHT22;8313;49.894;8.084;2022-09-03T06:16:19;17.70;68.60
16408;DHT22;8313;49.894;8.084;2022-09-03T06:18:46;17.70;69.60
16408;DHT22;8313;49.894;8.084;2022-09-03T06:21:12;17.70;69.80
16408;DHT22;8313;49.894;8.084;2022-09-03T06:23:40;17.70;70.40
16408;DHT22;8313;49.894;8.084;2022-09-03T06:26:11;17.70;72.60
16408;DHT22;8313;49.894;8.084;2022-09-03T06:28:39;17.80;71.20
16408;DHT22;8313;49.894;8.084;2022-09-03T06:31:13;17.70;70.20
16408;DHT22;8313;49.894;8.084;2022-09-03T06:33:39;17.70;70.40
16408;DHT22;8313;49.894;8.084;2022-09-03T06:36:12;17.70;70.80
16408;DHT22;8313;49.894;8.084;2022-09-03T06:38:39;17.80;71.50
16408;DHT22;8313;49.894;8.084;2022-09-03T06:41:16;17.80;71.90
16408;DHT22;8313;49.894;8.084;2022-09-03T06:44:13;17.80;72.00
16408;DHT22;8313;49.894;8.084;2022-09-03T06:46:39;17.80;72.20
16408;DHT22;8313;49.894;8.084;2022-09-03T06:49:09;17.80;73.10
16408;DHT22;8313;49.894;8.084;2022-09-03T06:51:36;17.80;74.40
16408;DHT22;8313;49.894;8.084;2022-09-03T06:54:04;17.80;73.90
16408;DHT22;8313;49.894;8.084;2022-09-03T06:56:31;17.80;73.30
16408;DHT22;8313;49.894;8.084;2022-09-03T06:58:59;17.80;73.10
16408;DHT22;8313;49.894;8.084;2022-09-03T07:01:27;17.80;73.10
16408;DHT22;8313;49.894;8.084;2022-09-03T07:03:57;17.80;73.70
16408;DHT22;8313;49.894;8.084;2022-09-03T07:06:25;17.80;75.00
16408;DHT22;8313;49.894;8.084;2022-09-03T07:08:52;17.80;75.30
16408;DHT22;8313;49.894;8.084;2022-09-03T07:11:20;17.80;75.30
16408;DHT22;8313;49.894;8.084;2022-09-03T07:13:50;17.80;75.70
16408;DHT22;8313;49.894;8.084;2022-09-03T07:16:23;17.90;74.50
16408;DHT22;8313;49.894;8.084;2022-09-03T07:18:50;17.80;74.90
16408;DHT22;8313;49.894;8.084;2022-09-03T07:21:19;17.80;76.70
16408;DHT22;8313;49.894;8.084;2022-09-03T07:23:45;17.80;76.50
16408;DHT22;8313;49.894;8.084;2022-09-03T07:26:14;17.80;76.80
16408;DHT22;8313;49.894;8.084;2022-09-03T07:28:42;17.80;76.80
16408;DHT22;8313;49.894;8.084;2022-09-03T07:33:33;17.80;78.20
16408;DHT22;8313;49.894;8.084;2022-09-03T07:36:27;17.80;77.90
16408;DHT22;8313;49.894;8.084;2022-09-03T07:38:57;17.80;78.30
16408;DHT22;8313;49.894;8.084;2022-09-03T07:41:24;17.80;78.80
16408;DHT22;8313;49.894;8.084;2022-09-03T07:43:52;17.80;79.20
16408;DHT22;8313;49.894;8.084;2022-09-03T07:46:20;17.80;79.90
16408;DHT22;8313;49.894;8.084;2022-09-03T07:48:54;17.80;80.00
16408;DHT22;8313;49.894;8.084;2022-09-03T07:51:23;17.80;80.50
16408;DHT22;8313;49.894;8.084;2022-09-03T07:53:53;17.80;80.40
16408;DHT22;8313;49.894;8.084;2022-09-03T07:56:19;17.80;81.00
16408;DHT22;8313;49.894;8.084;2022-09-03T07:58:45;17.80;82.20
16408;DHT22;8313;49.894;8.084;2022-09-03T08:01:14;17.80;82.80
16408;DHT22;8313;49.894;8.084;2022-09-03T08:03:47;17.80;83.60
16408;DHT22;8313;49.894;8.084;2022-09-03T08:06:14;17.80;85.10
16408;DHT22;8313;49.894;8.084;2022-09-03T08:08:41;17.80;85.40
16408;DHT22;8313;49.894;8.084;2022-09-03T08:13:54;17.80;85.80
16408;DHT22;8313;49.894;8.084;2022-09-03T08:16:22;17.80;85.40
16408;DHT22;8313;49.894;8.084;2022-09-03T08:18:48;17.80;85.40
16408;DHT22;8313;49.894;8.084;2022-09-03T08:21:17;17.80;85.10
16408;DHT22;8313;49.894;8.084;2022-09-03T08:23:46;17.90;87.10
16408;DHT22;8313;49.894;8.084;2022-09-03T08:26:12;17.90;88.10
16408;DHT22;8313;49.894;8.084;2022-09-03T08:28:39;17.90;88.80
16408;DHT22;8313;49.894;8.084;2022-09-03T08:31:10;17.90;89.70
16408;DHT22;8313;49.894;8.084;2022-09-03T08:33:37;17.90;89.40
16408;DHT22;8313;49.894;8.084;2022-09-03T08:36:07;17.90;88.70
16408;DHT22;8313;49.894;8.084;2022-09-03T08:38:34;17.90;88.40
16408;DHT22;8313;49.894;8.084;2022-09-03T08:41:14;17.90;88.70
16408;DHT22;8313;49.894;8.084;2022-09-03T08:44:15;18.00;89.70
16408;DHT22;8313;49.894;8.084;2022-09-03T08:47:08;18.00;90.50
16408;DHT22;8313;49.894;8.084;2022-09-03T08:49:47;18.00;90.50
16408;DHT22;8313;49.894;8.084;2022-09-03T08:54:59;18.00;90.10
16408;DHT22;8313;49.894;8.084;2022-09-03T08:57:25;18.00;89.50
16408;DHT22;8313;49.894;8.084;2022-09-03T08:59:54;18.00;89.60
16408;DHT22;8313;49.894;8.084;2022-09-03T09:10:48;18.10;90.50
16408;DHT22;8313;49.894;8.084;2022-09-03T09:16:05;18.10;90.70
16408;DHT22;8313;49.894;8.084;2022-09-03T09:19:07;18.20;92.20
16408;DHT22;8313;49.894;8.084;2022-09-03T09:21:46;18.20;92.20
16408;DHT22;8313;49.894;8.084;2022-09-03T09:24:24;18.30;92.40
16408;DHT22;8313;49.894;8.084;2022-09-03T09:26:59;18.30;92.60
16408;DHT22;8313;49.894;8.084;2022-09-03T09:29:32;18.30;92.50
16408;DHT22;8313;49.894;8.084;2022-09-03T09:31:59;18.40;92.70
16408;DHT22;8313;49.894;8.084;2022-09-03T09:34:25;18.40;93.00
16408;DHT22;8313;49.894;8.084;2022-09-03T09:36:54;18.50;93.10
16408;DHT22;8313;49.894;8.084;2022-09-03T09:39:20;18.50;94.00
16408;DHT22;8313;49.894;8.084;2022-09-03T09:42:10;18.60;94.50
16408;DHT22;8313;49.894;8.084;2022-09-03T09:44:41;18.70;94.00
16408;DHT22;8313;49.894;8.084;2022-09-03T09:47:12;18.70;94.40
16408;DHT22;8313;49.894;8.084;2022-09-03T09:52:12;18.80;94.70
16408;DHT22;8313;49.894;8.084;2022-09-03T09:54:40;18.90;94.90
16408;DHT22;8313;49.894;8.084;2022-09-03T09:57:13;19.00;95.60
16408;DHT22;8313;49.894;8.084;2022-09-03T09:59:42;19.10;95.40
16408;DHT22;8313;49.894;8.084;2022-09-03T10:02:24;19.10;94.90
16408;DHT22;8313;49.894;8.084;2022-09-03T10:05:00;19.20;96.20
16408;DHT22;8313;49.894;8.084;2022-09-03T10:07:36;19.30;95.30
16408;DHT22;8313;49.894;8.084;2022-09-03T10:10:16;19.30;96.00
16408;DHT22;8313;49.894;8.084;2022-09-03T10:15:39;19.70;97.80
16408;DHT22;8313;49.894;8.084;2022-09-03T10:26:25;20.10;97.70
16408;DHT22;8313;49.894;8.084;2022-09-03T10:29:00;20.20;97.50
16408;DHT22;8313;49.894;8.084;2022-09-03T10:31:33;20.20;97.90
16408;DHT22;8313;49.894;8.084;2022-09-03T10:34:13;20.30;98.10
16408;DHT22;8313;49.894;8.084;2022-09-03T10:42:17;20.50;98.10
16408;DHT22;8313;49.894;8.084;2022-09-03T10:44:59;20.50;96.70
16408;DHT22;8313;49.894;8.084;2022-09-03T10:55:34;20.80;97.20
16408;DHT22;8313;49.894;8.084;2022-09-03T10:58:31;20.70;97.30
16408;DHT22;8313;49.894;8.084;2022-09-03T11:03:59;20.80;97.40
16408;DHT22;8313;49.894;8.084;2022-09-03T11:06:39;20.90;98.20
16408;DHT22;8313;49.894;8.084;2022-09-03T11:14:43;21.20;98.00
16408;DHT22;8313;49.894;8.084;2022-09-03T11:17:46;21.30;98.10
16408;DHT22;8313;49.894;8.084;2022-09-03T11:22:40;21.50;98.60
16408;DHT22;8313;49.894;8.084;2022-09-03T11:25:10;21.60;99.10
16408;DHT22;8313;49.894;8.084;2022-09-03T11:30:22;21.90;98.70
16408;DHT22;8313;49.894;8.084;2022-09-03T11:32:52;22.00;98.70
16408;DHT22;8313;49.894;8.084;2022-09-03T11:35:40;22.00;98.00
16408;DHT22;8313;49.894;8.084;2022-09-03T11:43:30;22.10;98.20
16408;DHT22;8313;49.894;8.084;2022-09-03T11:46:08;22.20;98.10
16408;DHT22;8313;49.894;8.084;2022-09-03T11:51:30;22.20;98.00
16408;DHT22;8313;49.894;8.084;2022-09-03T11:56:48;22.30;97.90
16408;DHT22;8313;49.894;8.084;2022-09-03T11:59:25;22.30;97.40
16408;DHT22;8313;49.894;8.084;2022-09-03T12:02:04;22.40;97.70
16408;DHT22;8313;49.894;8.084;2022-09-03T12:04:52;22.40;97.40
16408;DHT22;8313;49.894;8.084;2022-09-03T12:07:28;22.40;97.20
16408;DHT22;8313;49.894;8.084;2022-09-03T12:10:04;22.50;97.00
16408;DHT22;8313;49.894;8.084;2022-09-03T12:12:48;22.60;97.00
16408;DHT22;8313;49.894;8.084;2022-09-03T12:18:07;22.70;97.00
16408;DHT22;8313;49.894;8.084;2022-09-03T12:21:00;22.70;96.90
16408;DHT22;8313;49.894;8.084;2022-09-03T12:23:33;22.70;96.80
16408;DHT22;8313;49.894;8.084;2022-09-03T12:26:08;22.70;96.70
16408;DHT22;8313;49.894;8.084;2022-09-03T12:28:36;22.80;96.70
16408;DHT22;8313;49.894;8.084;2022-09-03T12:31:08;22.80;96.70
16408;DHT22;8313;49.894;8.084;2022-09-03T12:33:41;22.80;96.60
16408;DHT22;8313;49.894;8.084;2022-09-03T12:36:08;22.80;96.50
16408;DHT22;8313;49.894;8.084;2022-09-03T12:38:34;22.90;96.60
16408;DHT22;8313;49.894;8.084;2022-09-03T12:41:00;22.90;96.60
16408;DHT22;8313;49.894;8.084;2022-09-03T12:43:27;22.90;96.20
16408;DHT22;8313;49.894;8.084;2022-09-03T12:45:53;22.90;96.30
16408;DHT22;8313;49.894;8.084;2022-09-03T12:48:20;22.90;96.30
16408;DHT22;8313;49.894;8.084;2022-09-03T12:50:47;22.90;96.20
16408;DHT22;8313;49.894;8.084;2022-09-03T12:53:21;22.90;96.10
16408;DHT22;8313;49.894;8.084;2022-09-03T12:55:53;22.90;95.90
16408;DHT22;8313;49.894;8.084;2022-09-03T12:58:34;22.90;95.90
16408;DHT22;8313;49.894;8.084;2022-09-03T13:03:47;23.00;95.70
16408;DHT22;8313;49.894;8.084;2022-09-03T13:06:18;23.00;95.50
16408;DHT22;8313;49.894;8.084;2022-09-03T13:08:53;23.00;95.90
16408;DHT22;8313;49.894;8.084;2022-09-03T13:11:21;23.00;95.70
16408;DHT22;8313;49.894;8.084;2022-09-03T13:14:15;23.10;95.60
16408;DHT22;8313;49.894;8.084;2022-09-03T13:21:49;23.10;96.00
16408;DHT22;8313;49.894;8.084;2022-09-03T13:24:37;23.20;96.30
16408;DHT22;8313;49.894;8.084;2022-09-03T13:30:15;23.30;95.70
16408;DHT22;8313;49.894;8.084;2022-09-03T13:38:26;23.40;95.50
16408;DHT22;8313;49.894;8.084;2022-09-03T13:41:15;23.40;95.40
16408;DHT22;8313;49.894;8.084;2022-09-03T13:46:30;23.40;95.10
16408;DHT22;8313;49.894;8.084;2022-09-03T13:49:16;23.40;95.40
16408;DHT22;8313;49.894;8.084;2022-09-03T13:53:12;23.40;95.30
16408;DHT22;8313;49.894;8.084;2022-09-03T14:03:41;23.50;95.30
16408;DHT22;8313;49.894;8.084;2022-09-03T14:06:28;23.50;94.90
16408;DHT22;8313;49.894;8.084;2022-09-03T14:12:28;23.50;95.20
16408;DHT22;8313;49.894;8.084;2022-09-03T14:15:02;23.50;94.90
16408;DHT22;8313;49.894;8.084;2022-09-03T14:20:24;23.50;94.90
16408;DHT22;8313;49.894;8.084;2022-09-03T14:23:09;23.60;94.80
16408;DHT22;8313;49.894;8.084;2022-09-03T14:25:52;23.60;94.70
16408;DHT22;8313;49.894;8.084;2022-09-03T14:28:29;23.60;94.60
16408;DHT22;8313;49.894;8.084;2022-09-03T14:31:21;23.60;94.50
16408;DHT22;8313;49.894;8.084;2022-09-03T14:33:57;23.60;94.40
16408;DHT22;8313;49.894;8.084;2022-09-03T14:36:48;23.60;94.30
16408;DHT22;8313;49.894;8.084;2022-09-03T14:39:32;23.70;94.40
16408;DHT22;8313;49.894;8.084;2022-09-03T14:47:11;23.70;94.40
16408;DHT22;8313;49.894;8.084;2022-09-03T14:50:02;23.60;94.30
16408;DHT22;8313;49.894;8.084;2022-09-03T14:52:36;23.60;94.40
16408;DHT22;8313;49.894;8.084;2022-09-03T15:01:03;23.60;94.40
16408;DHT22;8313;49.894;8.084;2022-09-03T15:07:17;23.60;94.20
16408;DHT22;8313;49.894;8.084;2022-09-03T15:12:05;23.60;94.40
16408;DHT22;8313;49.894;8.084;2022-09-03T15:14:55;23.50;94.40
16408;DHT22;8313;49.894;8.084;2022-09-03T15:17:37;23.50;94.30
16408;DHT22;8313;49.894;8.084;2022-09-03T15:20:20;23.50;94.20
16408;DHT22;8313;49.894;8.084;2022-09-03T15:37:01;23.30;94.60
16408;DHT22;8313;49.894;8.084;2022-09-03T15:39:36;23.30;94.50
16408;DHT22;8313;49.894;8.084;2022-09-03T15:42:17;23.30;94.70
16408;DHT22;8313;49.894;8.084;2022-09-03T15:44:53;23.30;94.70
16408;DHT22;8313;49.894;8.084;2022-09-03T15:50:27;23.30;95.80
16408;DHT22;8313;49.894;8.084;2022-09-03T15:53:20;23.20;96.70
16408;DHT22;8313;49.894;8.084;2022-09-03T15:59:11;22.60;96.20
16408;DHT22;8313;49.894;8.084;2022-09-03T16:04:47;22.00;96.50
16408;DHT22;8313;49.894;8.084;2022-09-03T16:07:26;21.80;96.90
16408;DHT22;8313;49.894;8.084;2022-09-03T16:10:13;21.50;97.10
16408;DHT22;8313;49.894;8.084;2022-09-03T16:13:01;21.20;97.50
16408;DHT22;8313;49.894;8.084;2022-09-03T16:15:39;21.10;97.60
16408;DHT22;8313;49.894;8.084;2022-09-03T16:21:01;20.90;98.00
16408;DHT22;8313;49.894;8.084;2022-09-03T16:23:57;20.80;98.30
16408;DHT22;8313;49.894;8.084;2022-09-03T16:29:14;20.80;98.60
16408;DHT22;8313;49.894;8.084;2022-09-03T16:38:04;21.00;97.90
16408;DHT22;8313;49.894;8.084;2022-09-03T16:48:52;21.20;97.80
16408;DHT22;8313;49.894;8.084;2022-09-03T16:51:26;21.30;97.40
16408;DHT22;8313;49.894;8.084;2022-09-03T16:54:27;21.30;97.50
16408;DHT22;8313;49.894;8.084;2022-09-03T16:57:06;21.30;97.50
16408;DHT22;8313;49.894;8.084;2022-09-03T17:02:45;21.30;97.30
16408;DHT22;8313;49.894;8.084;2022-09-03T17:08:23;21.30;97.30
16408;DHT22;8313;49.894;8.084;2022-09-03T17:11:00;21.40;97.50
16408;DHT22;8313;49.894;8.084;2022-09-03T17:19:33;21.40;97.60
16408;DHT22;8313;49.894;8.084;2022-09-03T17:31:14;21.30;98.30
16408;DHT22;8313;49.894;8.084;2022-09-03T17:36:25;21.20;98.00
16408;DHT22;8313;49.894;8.084;2022-09-03T17:39:05;21.30;97.80
16408;DHT22;8313;49.894;8.084;2022-09-03T17:50:05;21.30;97.60
16408;DHT22;8313;49.894;8.084;2022-09-03T17:52:48;21.30;97.70
16408;DHT22;8313;49.894;8.084;2022-09-03T17:55:22;21.30;97.60
16408;DHT22;8313;49.894;8.084;2022-09-03T17:58:10;21.30;97.50
16408;DHT22;8313;49.894;8.084;2022-09-03T18:00:56;21.20;97.80
16408;DHT22;8313;49.894;8.084;2022-09-03T18:03:57;21.10;97.70
16408;DHT22;8313;49.894;8.084;2022-09-03T18:06:29;21.20;97.50
16408;DHT22;8313;49.894;8.084;2022-09-03T18:11:38;21.20;97.50
16408;DHT22;8313;49.894;8.084;2022-09-03T18:14:19;21.10;98.00
16408;DHT22;8313;49.894;8.084;2022-09-03T18:19:51;21.00;98.00
16408;DHT22;8313;49.894;8.084;2022-09-03T18:25:35;21.00;97.70
16408;DHT22;8313;49.894;8.084;2022-09-03T18:28:38;21.00;98.00
16408;DHT22;8313;49.894;8.084;2022-09-03T18:31:23;20.90;97.90
16408;DHT22;8313;49.894;8.084;2022-09-03T18:34:08;20.90;97.70
16408;DHT22;8313;49.894;8.084;2022-09-03T18:36:56;20.80;97.50
16408;DHT22;8313;49.894;8.084;2022-09-03T18:39:44;20.80;97.40
16408;DHT22;8313;49.894;8.084;2022-09-03T18:48:32;20.80;97.20
16408;DHT22;8313;49.894;8.084;2022-09-03T18:56:52;20.70;97.10
16408;DHT22;8313;49.894;8.084;2022-09-03T19:02:56;20.60;96.90
16408;DHT22;8313;49.894;8.084;2022-09-03T19:15:23;20.50;97.00
16408;DHT22;8313;49.894;8.084;2022-09-03T19:21:42;20.40;97.20
16408;DHT22;8313;49.894;8.084;2022-09-03T19:24:30;20.40;97.10
16408;DHT22;8313;49.894;8.084;2022-09-03T19:30:12;20.30;96.80
16408;DHT22;8313;49.894;8.084;2022-09-03T19:33:14;20.20;97.10
16408;DHT22;8313;49.894;8.084;2022-09-03T19:36:15;20.20;97.00
16408;DHT22;8313;49.894;8.084;2022-09-03T19:45:48;20.10;97.00
16408;DHT22;8313;49.894;8.084;2022-09-03T19:49:38;20.10;96.90
16408;DHT22;8313;49.894;8.084;2022-09-03T19:54:53;20.00;97.10
16408;DHT22;8313;49.894;8.084;2022-09-03T19:57:40;20.00;96.90
16408;DHT22;8313;49.894;8.084;2022-09-03T20:00:24;20.00;96.80
16408;DHT22;8313;49.894;8.084;2022-09-03T20:03:13;20.00;96.90
16408;DHT22;8313;49.894;8.084;2022-09-03T20:05:59;20.00;96.70
16408;DHT22;8313;49.894;8.084;2022-09-03T20:08:45;19.90;96.80
16408;DHT22;8313;49.894;8.084;2022-09-03T20:11:30;19.90;97.30
16408;DHT22;8313;49.894;8.084;2022-09-03T20:13:58;19.80;97.00
16408;DHT22;8313;49.894;8.084;2022-09-03T20:16:54;19.80;96.80
16408;DHT22;8313;49.894;8.084;2022-09-03T20:19:36;19.80;96.80
16408;DHT22;8313;49.894;8.084;2022-09-03T20:22:29;19.80;96.90
16408;DHT22;8313;49.894;8.084;2022-09-03T20:30:31;19.70;96.80
16408;DHT22;8313;49.894;8.084;2022-09-03T20:33:18;19.70;96.80
16408;DHT22;8313;49.894;8.084;2022-09-03T20:41:31;19.60;96.50
16408;DHT22;8313;49.894;8.084;2022-09-03T20:52:18;19.50;96.50
16408;DHT22;8313;49.894;8.084;2022-09-03T20:55:01;19.50;96.40
16408;DHT22;8313;49.894;8.084;2022-09-03T21:00:16;19.50;96.70
16408;DHT22;8313;49.894;8.084;2022-09-03T21:10:53;19.40;96.70
16408;DHT22;8313;49.894;8.084;2022-09-03T21:24:30;19.30;96.50
16408;DHT22;8313;49.894;8.084;2022-09-03T21:27:02;19.30;96.70
16408;DHT22;8313;49.894;8.084;2022-09-03T21:29:38;19.30;97.00
16408;DHT22;8313;49.894;8.084;2022-09-03T21:32:21;19.20;96.90
16408;DHT22;8313;49.894;8.084;2022-09-03T21:37:23;19.20;97.00
16408;DHT22;8313;49.894;8.084;2022-09-03T21:39:55;19.10;96.70
16408;DHT22;8313;49.894;8.084;2022-09-03T21:42:45;19.10;97.10
16408;DHT22;8313;49.894;8.084;2022-09-03T21:45:30;19.00;96.90
16408;DHT22;8313;49.894;8.084;2022-09-03T21:48:24;19.00;97.10
16408;DHT22;8313;49.894;8.084;2022-09-03T21:50:57;19.00;97.10
16408;DHT22;8313;49.894;8.084;2022-09-03T21:53:47;19.00;97.40
16408;DHT22;8313;49.894;8.084;2022-09-03T21:56:49;19.00;97.20
16408;DHT22;8313;49.894;8.084;2022-09-03T22:02:22;18.90;97.30
16408;DHT22;8313;49.894;8.084;2022-09-03T22:04:49;18.90;97.40
16408;DHT22;8313;49.894;8.084;2022-09-03T22:15:34;18.80;97.50
16408;DHT22;8313;49.894;8.084;2022-09-03T22:18:09;18.80;97.80
16408;DHT22;8313;49.894;8.084;2022-09-03T22:20:43;18.80;97.70
16408;DHT22;8313;49.894;8.084;2022-09-03T22:23:24;18.80;97.40
16408;DHT22;8313;49.894;8.084;2022-09-03T22:25:58;18.80;97.40
16408;DHT22;8313;49.894;8.084;2022-09-03T22:33:34;18.80;97.60
16408;DHT22;8313;49.894;8.084;2022-09-03T22:36:13;18.80;97.50
16408;DHT22;8313;49.894;8.084;2022-09-03T22:41:51;18.70;97.40